sensor_id;sensor_type;location;lat;lon;timestamp;P1;durP1;ratioP1;P2;durP2;ratioP2
23009;SDS011;11671;49.990;8.028;2023-09-19T00:01:28;792.63;;;737.20;;
23009;SDS011;11671;49.990;8.028;2023-09-19T00:03:55;765.28;;;711.83;;
23009;SDS011;11671;49.990;8.028;2023-09-19T00:06:22;763.88;;;710.40;;
23009;SDS011;11671;49.990;8.028;2023-09-19T00:08:51;747.65;;;695.38;;
23009;SDS011;11671;49.990;8.028;2023-09-19T00:13:42;756.92;;;704.17;;
23009;SDS011;11671;49.990;8.028;2023-09-19T00:18:35;762.85;;;710.10;;
23009;SDS011;11671;49.990;8.028;2023-09-19T00:21:02;751.00;;;698.97;;
23009;SDS011;11671;49.990;8.028;2023-09-19T00:23:30;752.00;;;699.75;;
23009;SDS011;11671;49.990;8.028;2023-09-19T00:26:00;732.70;;;681.72;;
23009;SDS011;11671;49.990;8.028;2023-09-19T00:28:26;743.78;;;691.92;;
23009;SDS011;11671;49.990;8.028;2023-09-19T00:30:52;736.17;;;685.00;;
23009;SDS011;11671;49.990;8.028;2023-09-19T00:33:20;740.38;;;688.72;;
23009;SDS011;11671;49.990;8.028;2023-09-19T00:35:47;723.88;;;673.75;;
23009;SDS011;11671;49.990;8.028;2023-09-19T00:38:16;746.47;;;694.63;;
23009;SDS011;11671;49.990;8.028;2023-09-19T00:40:45;703.78;;;655.55;;
23009;SDS011;11671;49.990;8.028;2023-09-19T00:43:11;707.22;;;658.33;;
23009;SDS011;11671;49.990;8.028;2023-09-19T00:48:07;740.58;;;689.50;;
23009;SDS011;11671;49.990;8.028;2023-09-19T00:50:34;729.83;;;679.53;;
23009;SDS011;11671;49.990;8.028;2023-09-19T00:53:00;734.30;;;683.72;;
23009;SDS011;11671;49.990;8.028;2023-09-19T00:55:27;741.05;;;689.78;;
23009;SDS011;11671;49.990;8.028;2023-09-19T00:57:55;731.55;;;680.97;;
23009;SDS011;11671;49.990;8.028;2023-09-19T01:00:21;734.05;;;683.47;;
23009;SDS011;11671;49.990;8.028;2023-09-19T01:02:48;738.33;;;687.35;;
23009;SDS011;11671;49.990;8.028;2023-09-19T01:07:40;763.13;;;710.95;;
23009;SDS011;11671;49.990;8.028;2023-09-19T01:12:53;763.47;;;711.33;;
23009;SDS011;11671;49.990;8.028;2023-09-19T01:26:37;756.22;;;704.22;;
23009;SDS011;11671;49.990;8.028;2023-09-19T01:29:49;790.58;;;736.15;;
23009;SDS011;11671;49.990;8.028;2023-09-19T01:34:48;751.90;;;701.00;;
23009;SDS011;11671;49.990;8.028;2023-09-19T01:37:28;754.83;;;703.45;;
23009;SDS011;11671;49.990;8.028;2023-09-19T01:43:02;762.60;;;710.92;;
23009;SDS011;11671;49.990;8.028;2023-09-19T01:46:14;755.35;;;703.75;;
23009;SDS011;11671;49.990;8.028;2023-09-19T01:51:40;769.00;;;715.72;;
23009;SDS011;11671;49.990;8.028;2023-09-19T01:54:24;746.10;;;695.20;;
23009;SDS011;11671;49.990;8.028;2023-09-19T01:56:57;766.05;;;713.45;;
23009;SDS011;11671;49.990;8.028;2023-09-19T01:59:45;780.22;;;726.42;;
23009;SDS011;11671;49.990;8.028;2023-09-19T02:02:17;757.08;;;705.30;;
23009;SDS011;11671;49.990;8.028;2023-09-19T02:04:46;752.05;;;700.60;;
23009;SDS011;11671;49.990;8.028;2023-09-19T02:07:13;768.35;;;715.30;;
23009;SDS011;11671;49.990;8.028;2023-09-19T02:09:41;745.70;;;694.67;;
23009;SDS011;11671;49.990;8.028;2023-09-19T02:14:33;755.50;;;704.42;;
23009;SDS011;11671;49.990;8.028;2023-09-19T02:17:01;745.40;;;694.65;;
23009;SDS011;11671;49.990;8.028;2023-09-19T02:19:28;751.25;;;699.78;;
23009;SDS011;11671;49.990;8.028;2023-09-19T02:21:54;758.30;;;706.20;;
23009;SDS011;11671;49.990;8.028;2023-09-19T02:26:46;764.17;;;712.53;;
23009;SDS011;11671;49.990;8.028;2023-09-19T02:29:12;782.72;;;729.05;;
23009;SDS011;11671;49.990;8.028;2023-09-19T02:34:04;791.95;;;738.28;;
23009;SDS011;11671;49.990;8.028;2023-09-19T02:36:31;753.33;;;702.15;;
23009;SDS011;11671;49.990;8.028;2023-09-19T02:41:23;779.50;;;726.88;;
23009;SDS011;11671;49.990;8.028;2023-09-19T02:46:14;777.45;;;725.00;;
23009;SDS011;11671;49.990;8.028;2023-09-19T02:51:05;764.05;;;713.05;;
23009;SDS011;11671;49.990;8.028;2023-09-19T02:55:57;754.30;;;704.10;;
23009;SDS011;11671;49.990;8.028;2023-09-19T02:58:23;766.00;;;714.10;;
23009;SDS011;11671;49.990;8.028;2023-09-19T03:03:16;791.58;;;738.50;;
23009;SDS011;11671;49.990;8.028;2023-09-19T03:05:42;772.28;;;720.05;;
23009;SDS011;11671;49.990;8.028;2023-09-19T03:08:12;772.20;;;719.95;;
23009;SDS011;11671;49.990;8.028;2023-09-19T03:10:40;766.60;;;714.65;;
23009;SDS011;11671;49.990;8.028;2023-09-19T03:15:33;768.88;;;717.55;;
23009;SDS011;11671;49.990;8.028;2023-09-19T03:20:24;806.08;;;752.17;;
23009;SDS011;11671;49.990;8.028;2023-09-19T03:25:17;785.37;;;733.03;;
23009;SDS011;11671;49.990;8.028;2023-09-19T03:30:08;803.20;;;749.55;;
23009;SDS011;11671;49.990;8.028;2023-09-19T03:35:01;798.72;;;745.40;;
23009;SDS011;11671;49.990;8.028;2023-09-19T03:37:27;774.47;;;722.17;;
23009;SDS011;11671;49.990;8.028;2023-09-19T03:42:18;779.95;;;727.97;;
23009;SDS011;11671;49.990;8.028;2023-09-19T03:44:50;765.25;;;713.85;;
23009;SDS011;11671;49.990;8.028;2023-09-19T03:47:17;783.03;;;730.22;;
23009;SDS011;11671;49.990;8.028;2023-09-19T03:49:43;765.97;;;714.53;;
23009;SDS011;11671;49.990;8.028;2023-09-19T03:54:35;797.30;;;743.80;;
23009;SDS011;11671;49.990;8.028;2023-09-19T03:59:26;789.00;;;736.53;;
23009;SDS011;11671;49.990;8.028;2023-09-19T04:01:53;797.08;;;743.20;;
23009;SDS011;11671;49.990;8.028;2023-09-19T04:04:21;765.25;;;713.78;;
23009;SDS011;11671;49.990;8.028;2023-09-19T04:06:49;744.08;;;694.25;;
23009;SDS011;11671;49.990;8.028;2023-09-19T04:11:41;779.25;;;727.17;;
23009;SDS011;11671;49.990;8.028;2023-09-19T04:16:32;779.65;;;727.83;;
23009;SDS011;11671;49.990;8.028;2023-09-19T04:21:23;791.05;;;738.50;;
23009;SDS011;11671;49.990;8.028;2023-09-19T04:26:14;779.50;;;727.47;;
23009;SDS011;11671;49.990;8.028;2023-09-19T04:28:42;774.08;;;722.13;;
23009;SDS011;11671;49.990;8.028;2023-09-19T04:31:09;750.03;;;699.83;;
23009;SDS011;11671;49.990;8.028;2023-09-19T04:33:36;783.25;;;730.45;;
23009;SDS011;11671;49.990;8.028;2023-09-19T04:38:32;770.10;;;718.63;;
23009;SDS011;11671;49.990;8.028;2023-09-19T04:43:24;768.85;;;717.97;;
23009;SDS011;11671;49.990;8.028;2023-09-19T04:48:16;779.17;;;727.67;;
23009;SDS011;11671;49.990;8.028;2023-09-19T04:53:08;813.15;;;759.25;;
23009;SDS011;11671;49.990;8.028;2023-09-19T04:57:59;808.75;;;755.28;;
23009;SDS011;11671;49.990;8.028;2023-09-19T05:02:54;779.30;;;728.10;;
23009;SDS011;11671;49.990;8.028;2023-09-19T05:05:23;773.35;;;722.00;;
23009;SDS011;11671;49.990;8.028;2023-09-19T05:07:51;779.28;;;727.10;;
23009;SDS011;11671;49.990;8.028;2023-09-19T05:10:19;757.45;;;706.75;;
23009;SDS011;11671;49.990;8.028;2023-09-19T05:17:37;788.47;;;736.53;;
23009;SDS011;11671;49.990;8.028;2023-09-19T05:20:04;775.53;;;723.67;;
23009;SDS011;11671;49.990;8.028;2023-09-19T05:22:49;776.53;;;724.08;;
23009;SDS011;11671;49.990;8.028;2023-09-19T05:27:43;777.22;;;725.75;;
23009;SDS011;11671;49.990;8.028;2023-09-19T05:30:09;784.00;;;731.47;;
23009;SDS011;11671;49.990;8.028;2023-09-19T05:32:36;744.55;;;694.92;;
23009;SDS011;11671;49.990;8.028;2023-09-19T05:37:28;805.53;;;752.13;;
23009;SDS011;11671;49.990;8.028;2023-09-19T05:39:54;790.17;;;737.22;;
23009;SDS011;11671;49.990;8.028;2023-09-19T05:44:45;761.55;;;711.38;;
23009;SDS011;11671;49.990;8.028;2023-09-19T05:49:38;789.40;;;737.10;;
23009;SDS011;11671;49.990;8.028;2023-09-19T05:52:04;785.58;;;732.35;;
23009;SDS011;11671;49.990;8.028;2023-09-19T05:54:30;776.30;;;723.97;;
23009;SDS011;11671;49.990;8.028;2023-09-19T05:59:23;790.80;;;737.73;;
23009;SDS011;11671;49.990;8.028;2023-09-19T06:01:49;743.38;;;693.70;;
23009;SDS011;11671;49.990;8.028;2023-09-19T06:06:40;756.60;;;705.72;;
23009;SDS011;11671;49.990;8.028;2023-09-19T06:14:02;756.55;;;705.80;;
23009;SDS011;11671;49.990;8.028;2023-09-19T06:16:31;726.83;;;677.67;;
23009;SDS011;11671;49.990;8.028;2023-09-19T06:18:58;747.05;;;696.08;;
23009;SDS011;11671;49.990;8.028;2023-09-19T06:21:25;727.67;;;677.85;;
23009;SDS011;11671;49.990;8.028;2023-09-19T06:23:52;741.72;;;690.22;;
23009;SDS011;11671;49.990;8.028;2023-09-19T06:26:18;721.15;;;671.42;;
23009;SDS011;11671;49.990;8.028;2023-09-19T06:31:09;718.65;;;669.33;;
23009;SDS011;11671;49.990;8.028;2023-09-19T06:36:04;740.85;;;689.65;;
23009;SDS011;11671;49.990;8.028;2023-09-19T06:38:30;709.88;;;660.83;;
23009;SDS011;11671;49.990;8.028;2023-09-19T06:40:58;721.78;;;671.25;;
23009;SDS011;11671;49.990;8.028;2023-09-19T06:43:23;687.65;;;640.40;;
23009;SDS011;11671;49.990;8.028;2023-09-19T06:50:43;723.27;;;672.63;;
23009;SDS011;11671;49.990;8.028;2023-09-19T06:53:09;688.22;;;640.95;;
23009;SDS011;11671;49.990;8.028;2023-09-19T06:58:01;695.08;;;647.47;;
23009;SDS011;11671;49.990;8.028;2023-09-19T07:03:00;707.95;;;658.75;;
23009;SDS011;11671;49.990;8.028;2023-09-19T07:05:33;662.97;;;617.75;;
23009;SDS011;11671;49.990;8.028;2023-09-19T07:08:04;686.25;;;639.03;;
23009;SDS011;11671;49.990;8.028;2023-09-19T07:10:31;679.55;;;632.05;;
23009;SDS011;11671;49.990;8.028;2023-09-19T07:13:06;686.95;;;638.35;;
23009;SDS011;11671;49.990;8.028;2023-09-19T07:15:35;686.80;;;639.05;;
23009;SDS011;11671;49.990;8.028;2023-09-19T07:18:04;673.47;;;626.45;;
23009;SDS011;11671;49.990;8.028;2023-09-19T07:20:31;677.55;;;630.45;;
23009;SDS011;11671;49.990;8.028;2023-09-19T07:22:58;650.05;;;605.33;;
23009;SDS011;11671;49.990;8.028;2023-09-19T07:25:29;674.53;;;627.33;;
23009;SDS011;11671;49.990;8.028;2023-09-19T07:27:55;661.72;;;615.83;;
23009;SDS011;11671;49.990;8.028;2023-09-19T07:30:25;662.03;;;616.22;;
23009;SDS011;11671;49.990;8.028;2023-09-19T07:32:51;644.80;;;600.28;;
23009;SDS011;11671;49.990;8.028;2023-09-19T07:35:17;655.90;;;609.80;;
23009;SDS011;11671;49.990;8.028;2023-09-19T07:37:45;635.42;;;591.55;;
23009;SDS011;11671;49.990;8.028;2023-09-19T07:40:15;633.72;;;589.65;;
23009;SDS011;11671;49.990;8.028;2023-09-19T07:42:42;648.58;;;602.72;;
23009;SDS011;11671;49.990;8.028;2023-09-19T07:45:09;640.20;;;595.33;;
23009;SDS011;11671;49.990;8.028;2023-09-19T07:47:39;636.40;;;591.67;;
23009;SDS011;11671;49.990;8.028;2023-09-19T07:50:12;629.42;;;585.42;;
23009;SDS011;11671;49.990;8.028;2023-09-19T07:52:43;627.45;;;583.55;;
23009;SDS011;11671;49.990;8.028;2023-09-19T07:55:09;659.60;;;612.67;;
23009;SDS011;11671;49.990;8.028;2023-09-19T07:57:41;730.78;;;676.63;;
23009;SDS011;11671;49.990;8.028;2023-09-19T08:00:07;779.80;;;721.75;;
23009;SDS011;11671;49.990;8.028;2023-09-19T08:02:35;674.10;;;625.60;;
23009;SDS011;11671;49.990;8.028;2023-09-19T08:05:03;684.13;;;634.50;;
23009;SDS011;11671;49.990;8.028;2023-09-19T08:07:31;743.63;;;688.50;;
23009;SDS011;11671;49.990;8.028;2023-09-19T08:10:01;750.63;;;694.80;;
23009;SDS011;11671;49.990;8.028;2023-09-19T08:12:27;670.22;;;621.83;;
23009;SDS011;11671;49.990;8.028;2023-09-19T08:17:20;731.97;;;677.42;;
23009;SDS011;11671;49.990;8.028;2023-09-19T08:19:47;747.95;;;691.92;;
23009;SDS011;11671;49.990;8.028;2023-09-19T08:22:14;616.58;;;573.35;;
23009;SDS011;11671;49.990;8.028;2023-09-19T08:24:42;608.25;;;565.47;;
23009;SDS011;11671;49.990;8.028;2023-09-19T08:32:00;647.38;;;601.15;;
23009;SDS011;11671;49.990;8.028;2023-09-19T08:36:52;615.97;;;572.78;;
23009;SDS011;11671;49.990;8.028;2023-09-19T08:39:22;612.65;;;569.08;;
23009;SDS011;11671;49.990;8.028;2023-09-19T08:41:48;602.45;;;559.97;;
23009;SDS011;11671;49.990;8.028;2023-09-19T08:44:14;589.67;;;547.92;;
23009;SDS011;11671;49.990;8.028;2023-09-19T08:49:28;624.72;;;580.17;;
23009;SDS011;11671;49.990;8.028;2023-09-19T08:51:56;614.08;;;569.80;;
23009;SDS011;11671;49.990;8.028;2023-09-19T08:54:32;588.10;;;546.60;;
23009;SDS011;11671;49.990;8.028;2023-09-19T08:57:04;599.20;;;556.40;;
23009;SDS011;11671;49.990;8.028;2023-09-19T08:59:36;604.92;;;561.67;;
23009;SDS011;11671;49.990;8.028;2023-09-19T09:02:04;602.75;;;559.40;;
23009;SDS011;11671;49.990;8.028;2023-09-19T09:04:37;567.53;;;526.97;;
23009;SDS011;11671;49.990;8.028;2023-09-19T09:07:04;576.45;;;534.95;;
23009;SDS011;11671;49.990;8.028;2023-09-19T09:11:55;576.25;;;535.42;;
23009;SDS011;11671;49.990;8.028;2023-09-19T09:14:22;565.10;;;524.80;;
23009;SDS011;11671;49.990;8.028;2023-09-19T09:16:49;575.45;;;534.03;;
23009;SDS011;11671;49.990;8.028;2023-09-19T09:21:49;566.03;;;525.42;;
23009;SDS011;11671;49.990;8.028;2023-09-19T09:24:27;583.55;;;541.60;;
23009;SDS011;11671;49.990;8.028;2023-09-19T09:26:58;581.95;;;539.53;;
23009;SDS011;11671;49.990;8.028;2023-09-19T09:29:41;580.90;;;538.88;;
23009;SDS011;11671;49.990;8.028;2023-09-19T09:32:17;595.13;;;551.75;;
23009;SDS011;11671;49.990;8.028;2023-09-19T09:34:47;559.45;;;519.22;;
23009;SDS011;11671;49.990;8.028;2023-09-19T09:37:15;581.22;;;538.97;;
23009;SDS011;11671;49.990;8.028;2023-09-19T09:40:05;578.25;;;536.10;;
23009;SDS011;11671;49.990;8.028;2023-09-19T09:42:39;560.15;;;519.13;;
23009;SDS011;11671;49.990;8.028;2023-09-19T09:47:41;536.70;;;498.23;;
23009;SDS011;11671;49.990;8.028;2023-09-19T09:50:22;565.25;;;524.05;;
23009;SDS011;11671;49.990;8.028;2023-09-19T09:52:54;544.42;;;505.20;;
23009;SDS011;11671;49.990;8.028;2023-09-19T09:56:16;576.22;;;534.30;;
23009;SDS011;11671;49.990;8.028;2023-09-19T09:58:23;536.60;;;498.05;;
23009;SDS011;11671;49.990;8.028;2023-09-19T10:00:54;532.75;;;494.48;;
23009;SDS011;11671;49.990;8.028;2023-09-19T10:03:31;528.35;;;490.38;;
23009;SDS011;11671;49.990;8.028;2023-09-19T10:05:58;530.50;;;492.67;;
23009;SDS011;11671;49.990;8.028;2023-09-19T10:08:25;562.50;;;521.65;;
23009;SDS011;11671;49.990;8.028;2023-09-19T10:10:56;538.47;;;500.05;;
23009;SDS011;11671;49.990;8.028;2023-09-19T10:13:29;531.65;;;493.50;;
23009;SDS011;11671;49.990;8.028;2023-09-19T10:15:59;548.97;;;509.30;;
23009;SDS011;11671;49.990;8.028;2023-09-19T10:18:31;540.25;;;501.25;;
23009;SDS011;11671;49.990;8.028;2023-09-19T10:21:01;519.17;;;481.20;;
23009;SDS011;11671;49.990;8.028;2023-09-19T10:23:29;523.78;;;486.17;;
23009;SDS011;11671;49.990;8.028;2023-09-19T10:25:59;537.78;;;498.80;;
23009;SDS011;11671;49.990;8.028;2023-09-19T10:28:27;530.28;;;492.17;;
23009;SDS011;11671;49.990;8.028;2023-09-19T10:30:55;557.65;;;516.97;;
23009;SDS011;11671;49.990;8.028;2023-09-19T10:33:23;528.95;;;490.77;;
23009;SDS011;11671;49.990;8.028;2023-09-19T10:39:15;558.25;;;518.10;;
23009;SDS011;11671;49.990;8.028;2023-09-19T10:41:44;537.95;;;499.02;;
23009;SDS011;11671;49.990;8.028;2023-09-19T10:44:23;551.13;;;511.63;;
23009;SDS011;11671;49.990;8.028;2023-09-19T10:46:53;541.65;;;502.52;;
23009;SDS011;11671;49.990;8.028;2023-09-19T10:49:19;549.42;;;509.67;;
23009;SDS011;11671;49.990;8.028;2023-09-19T10:51:46;559.65;;;519.15;;
23009;SDS011;11671;49.990;8.028;2023-09-19T10:54:15;521.40;;;484.08;;
23009;SDS011;11671;49.990;8.028;2023-09-19T10:56:51;557.38;;;517.05;;
23009;SDS011;11671;49.990;8.028;2023-09-19T10:59:18;567.05;;;526.33;;
23009;SDS011;11671;49.990;8.028;2023-09-19T11:01:46;567.85;;;526.92;;
23009;SDS011;11671;49.990;8.028;2023-09-19T11:06:59;534.83;;;496.35;;
23009;SDS011;11671;49.990;8.028;2023-09-19T11:09:44;551.53;;;511.52;;
23009;SDS011;11671;49.990;8.028;2023-09-19T11:15:01;516.13;;;478.92;;
23009;SDS011;11671;49.990;8.028;2023-09-19T11:17:33;524.35;;;486.17;;
23009;SDS011;11671;49.990;8.028;2023-09-19T11:30:31;478.55;;;443.02;;
23009;SDS011;11671;49.990;8.028;2023-09-19T11:43:46;463.17;;;428.92;;
23009;SDS011;11671;49.990;8.028;2023-09-19T11:46:12;461.33;;;427.25;;
23009;SDS011;11671;49.990;8.028;2023-09-19T11:48:41;464.98;;;430.55;;
23009;SDS011;11671;49.990;8.028;2023-09-19T11:51:12;474.48;;;439.23;;
23009;SDS011;11671;49.990;8.028;2023-09-19T11:53:47;481.83;;;446.08;;
23009;SDS011;11671;49.990;8.028;2023-09-19T11:56:19;448.63;;;415.48;;
23009;SDS011;11671;49.990;8.028;2023-09-19T11:58:48;473.25;;;437.60;;
23009;SDS011;11671;49.990;8.028;2023-09-19T12:01:27;468.83;;;433.70;;
23009;SDS011;11671;49.990;8.028;2023-09-19T12:03:58;459.20;;;424.67;;
23009;SDS011;11671;49.990;8.028;2023-09-19T12:06:27;432.70;;;400.35;;
23009;SDS011;11671;49.990;8.028;2023-09-19T12:08:55;459.77;;;425.23;;
23009;SDS011;11671;49.990;8.028;2023-09-19T12:11:22;461.08;;;426.52;;
23009;SDS011;11671;49.990;8.028;2023-09-19T12:13:51;455.05;;;420.80;;
23009;SDS011;11671;49.990;8.028;2023-09-19T12:16:18;446.77;;;413.27;;
23009;SDS011;11671;49.990;8.028;2023-09-19T12:18:49;455.17;;;420.98;;
23009;SDS011;11671;49.990;8.028;2023-09-19T12:21:25;447.30;;;413.15;;
23009;SDS011;11671;49.990;8.028;2023-09-19T12:26:43;451.33;;;417.33;;
23009;SDS011;11671;49.990;8.028;2023-09-19T12:29:18;447.05;;;413.45;;
23009;SDS011;11671;49.990;8.028;2023-09-19T12:31:55;443.70;;;410.25;;
23009;SDS011;11671;49.990;8.028;2023-09-19T12:34:23;458.77;;;424.08;;
23009;SDS011;11671;49.990;8.028;2023-09-19T12:37:06;454.10;;;419.65;;
23009;SDS011;11671;49.990;8.028;2023-09-19T12:39:37;438.58;;;405.05;;
23009;SDS011;11671;49.990;8.028;2023-09-19T12:42:04;439.90;;;406.58;;
23009;SDS011;11671;49.990;8.028;2023-09-19T12:44:33;443.52;;;410.17;;
23009;SDS011;11671;49.990;8.028;2023-09-19T12:47:07;437.95;;;404.80;;
23009;SDS011;11671;49.990;8.028;2023-09-19T12:52:22;444.45;;;410.88;;
23009;SDS011;11671;49.990;8.028;2023-09-19T12:54:51;445.60;;;412.10;;
23009;SDS011;11671;49.990;8.028;2023-09-19T12:57:23;418.48;;;387.20;;
23009;SDS011;11671;49.990;8.028;2023-09-19T12:59:52;413.63;;;382.73;;
23009;SDS011;11671;49.990;8.028;2023-09-19T13:02:18;427.10;;;394.83;;
23009;SDS011;11671;49.990;8.028;2023-09-19T13:04:54;419.77;;;388.25;;
23009;SDS011;11671;49.990;8.028;2023-09-19T13:10:09;449.08;;;415.17;;
23009;SDS011;11671;49.990;8.028;2023-09-19T13:12:40;422.92;;;391.33;;
23009;SDS011;11671;49.990;8.028;2023-09-19T13:15:09;416.73;;;385.35;;
23009;SDS011;11671;49.990;8.028;2023-09-19T13:20:25;420.75;;;388.67;;
23009;SDS011;11671;49.990;8.028;2023-09-19T13:22:57;424.75;;;392.60;;
23009;SDS011;11671;49.990;8.028;2023-09-19T13:25:31;418.70;;;386.90;;
23009;SDS011;11671;49.990;8.028;2023-09-19T13:27:58;432.17;;;399.70;;
23009;SDS011;11671;49.990;8.028;2023-09-19T13:30:28;408.13;;;377.58;;
23009;SDS011;11671;49.990;8.028;2023-09-19T13:33:10;411.42;;;380.35;;
23009;SDS011;11671;49.990;8.028;2023-09-19T13:35:36;414.75;;;383.35;;
23009;SDS011;11671;49.990;8.028;2023-09-19T13:38:05;419.00;;;387.45;;
23009;SDS011;11671;49.990;8.028;2023-09-19T13:40:31;427.55;;;393.83;;
23009;SDS011;11671;49.990;8.028;2023-09-19T13:43:00;399.20;;;369.02;;
23009;SDS011;11671;49.990;8.028;2023-09-19T13:45:25;432.35;;;399.80;;
23009;SDS011;11671;49.990;8.028;2023-09-19T13:47:52;427.98;;;395.67;;
23009;SDS011;11671;49.990;8.028;2023-09-19T13:50:18;426.38;;;394.40;;
23009;SDS011;11671;49.990;8.028;2023-09-19T13:52:48;424.75;;;392.98;;
23009;SDS011;11671;49.990;8.028;2023-09-19T13:55:16;422.50;;;391.08;;
23009;SDS011;11671;49.990;8.028;2023-09-19T13:57:45;434.48;;;402.35;;
23009;SDS011;11671;49.990;8.028;2023-09-19T14:00:19;436.33;;;404.08;;
23009;SDS011;11671;49.990;8.028;2023-09-19T14:02:45;440.60;;;407.95;;
23009;SDS011;11671;49.990;8.028;2023-09-19T14:05:12;428.60;;;397.15;;
23009;SDS011;11671;49.990;8.028;2023-09-19T14:07:40;440.17;;;407.88;;
23009;SDS011;11671;49.990;8.028;2023-09-19T14:10:06;443.20;;;410.45;;
23009;SDS011;11671;49.990;8.028;2023-09-19T14:12:33;443.65;;;410.88;;
23009;SDS011;11671;49.990;8.028;2023-09-19T14:14:59;436.35;;;404.05;;
23009;SDS011;11671;49.990;8.028;2023-09-19T14:17:25;444.08;;;411.33;;
23009;SDS011;11671;49.990;8.028;2023-09-19T14:19:51;429.48;;;397.90;;
23009;SDS011;11671;49.990;8.028;2023-09-19T14:22:17;434.27;;;402.25;;
23009;SDS011;11671;49.990;8.028;2023-09-19T14:24:43;433.92;;;402.17;;
23009;SDS011;11671;49.990;8.028;2023-09-19T14:27:09;439.05;;;406.77;;
23009;SDS011;11671;49.990;8.028;2023-09-19T14:29:35;411.92;;;381.88;;
23009;SDS011;11671;49.990;8.028;2023-09-19T14:32:01;422.25;;;391.50;;
23009;SDS011;11671;49.990;8.028;2023-09-19T14:34:27;445.15;;;412.23;;
23009;SDS011;11671;49.990;8.028;2023-09-19T14:36:52;411.52;;;381.67;;
23009;SDS011;11671;49.990;8.028;2023-09-19T14:39:19;428.80;;;397.40;;
23009;SDS011;11671;49.990;8.028;2023-09-19T14:41:45;442.48;;;410.02;;
23009;SDS011;11671;49.990;8.028;2023-09-19T14:44:10;415.83;;;385.50;;
23009;SDS011;11671;49.990;8.028;2023-09-19T14:46:36;435.02;;;403.02;;
23009;SDS011;11671;49.990;8.028;2023-09-19T14:49:02;432.50;;;400.95;;
23009;SDS011;11671;49.990;8.028;2023-09-19T14:51:29;455.70;;;422.00;;
23009;SDS011;11671;49.990;8.028;2023-09-19T14:53:55;450.48;;;417.17;;
23009;SDS011;11671;49.990;8.028;2023-09-19T14:56:21;446.05;;;413.33;;
23009;SDS011;11671;49.990;8.028;2023-09-19T14:58:49;432.80;;;400.88;;
23009;SDS011;11671;49.990;8.028;2023-09-19T15:01:14;413.20;;;383.02;;
23009;SDS011;11671;49.990;8.028;2023-09-19T15:03:40;435.10;;;403.20;;
23009;SDS011;11671;49.990;8.028;2023-09-19T15:06:08;418.55;;;388.27;;
23009;SDS011;11671;49.990;8.028;2023-09-19T15:08:35;462.58;;;428.60;;
23009;SDS011;11671;49.990;8.028;2023-09-19T15:11:06;435.02;;;403.55;;
23009;SDS011;11671;49.990;8.028;2023-09-19T15:13:33;437.05;;;405.20;;
23009;SDS011;11671;49.990;8.028;2023-09-19T15:15:59;439.10;;;407.23;;
23009;SDS011;11671;49.990;8.028;2023-09-19T15:18:29;468.52;;;434.48;;
23009;SDS011;11671;49.990;8.028;2023-09-19T15:20:55;446.90;;;414.67;;
23009;SDS011;11671;49.990;8.028;2023-09-19T15:23:31;462.17;;;428.63;;
23009;SDS011;11671;49.990;8.028;2023-09-19T15:25:59;434.67;;;403.42;;
23009;SDS011;11671;49.990;8.028;2023-09-19T15:28:31;440.58;;;408.83;;
23009;SDS011;11671;49.990;8.028;2023-09-19T15:31:05;459.27;;;425.77;;
23009;SDS011;11671;49.990;8.028;2023-09-19T15:33:32;470.13;;;436.13;;
23009;SDS011;11671;49.990;8.028;2023-09-19T15:38:30;465.58;;;432.08;;
23009;SDS011;11671;49.990;8.028;2023-09-19T15:40:59;458.35;;;425.50;;
23009;SDS011;11671;49.990;8.028;2023-09-19T15:43:25;461.92;;;428.90;;
23009;SDS011;11671;49.990;8.028;2023-09-19T15:45:50;476.50;;;442.42;;
23009;SDS011;11671;49.990;8.028;2023-09-19T15:48:16;467.70;;;434.27;;
23009;SDS011;11671;49.990;8.028;2023-09-19T15:50:43;477.75;;;443.67;;
23009;SDS011;11671;49.990;8.028;2023-09-19T15:53:09;454.30;;;421.75;;
23009;SDS011;11671;49.990;8.028;2023-09-19T15:55:38;445.13;;;413.50;;
23009;SDS011;11671;49.990;8.028;2023-09-19T15:58:08;460.95;;;428.25;;
23009;SDS011;11671;49.990;8.028;2023-09-19T16:00:43;442.73;;;411.30;;
23009;SDS011;11671;49.990;8.028;2023-09-19T16:03:08;457.60;;;425.00;;
23009;SDS011;11671;49.990;8.028;2023-09-19T16:05:35;437.88;;;406.70;;
23009;SDS011;11671;49.990;8.028;2023-09-19T16:08:05;469.80;;;436.23;;
23009;SDS011;11671;49.990;8.028;2023-09-19T16:10:35;452.25;;;420.08;;
23009;SDS011;11671;49.990;8.028;2023-09-19T16:13:04;464.88;;;431.55;;
23009;SDS011;11671;49.990;8.028;2023-09-19T16:15:30;450.45;;;418.55;;
23009;SDS011;11671;49.990;8.028;2023-09-19T16:17:55;461.40;;;428.27;;
23009;SDS011;11671;49.990;8.028;2023-09-19T16:20:21;460.85;;;428.10;;
23009;SDS011;11671;49.990;8.028;2023-09-19T16:22:48;443.38;;;411.88;;
23009;SDS011;11671;49.990;8.028;2023-09-19T16:25:14;472.83;;;439.52;;
23009;SDS011;11671;49.990;8.028;2023-09-19T16:27:39;461.70;;;429.23;;
23009;SDS011;11671;49.990;8.028;2023-09-19T16:30:05;462.58;;;429.92;;
23009;SDS011;11671;49.990;8.028;2023-09-19T16:32:34;478.65;;;445.15;;
23009;SDS011;11671;49.990;8.028;2023-09-19T16:35:01;484.00;;;449.70;;
23009;SDS011;11671;49.990;8.028;2023-09-19T16:37:27;459.10;;;427.08;;
23009;SDS011;11671;49.990;8.028;2023-09-19T16:42:18;470.48;;;438.13;;
23009;SDS011;11671;49.990;8.028;2023-09-19T16:44:44;491.08;;;456.92;;
23009;SDS011;11671;49.990;8.028;2023-09-19T16:47:10;472.95;;;440.20;;
23009;SDS011;11671;49.990;8.028;2023-09-19T16:49:35;464.65;;;432.48;;
23009;SDS011;11671;49.990;8.028;2023-09-19T16:52:01;461.63;;;429.60;;
23009;SDS011;11671;49.990;8.028;2023-09-19T16:54:26;457.95;;;426.25;;
23009;SDS011;11671;49.990;8.028;2023-09-19T16:56:52;461.48;;;429.63;;
23009;SDS011;11671;49.990;8.028;2023-09-19T16:59:17;486.40;;;452.80;;
23009;SDS011;11671;49.990;8.028;2023-09-19T17:01:44;498.45;;;463.80;;
23009;SDS011;11671;49.990;8.028;2023-09-19T17:06:36;505.08;;;470.35;;
23009;SDS011;11671;49.990;8.028;2023-09-19T17:09:02;499.83;;;465.75;;
23009;SDS011;11671;49.990;8.028;2023-09-19T17:11:29;522.40;;;486.70;;
23009;SDS011;11671;49.990;8.028;2023-09-19T17:16:22;562.08;;;523.92;;
23009;SDS011;11671;49.990;8.028;2023-09-19T17:18:51;545.17;;;507.95;;
23009;SDS011;11671;49.990;8.028;2023-09-19T17:21:18;547.55;;;510.17;;
23009;SDS011;11671;49.990;8.028;2023-09-19T17:26:10;561.50;;;523.47;;
23009;SDS011;11671;49.990;8.028;2023-09-19T17:28:40;532.25;;;496.75;;
23009;SDS011;11671;49.990;8.028;2023-09-19T17:31:09;555.33;;;517.53;;
23009;SDS011;11671;49.990;8.028;2023-09-19T17:33:44;537.13;;;501.13;;